Time;durP1;ratioP1;P1;durP2;ratioP2;P2;SDS_P1;SDS_P2;PMS_P1;PMS_P2;Temp;Humidity;BMP_temperature;BMP_pressure;BME280_temperature;BME280_humidity;BME280_pressure;Samples;Min_cycle;Max_cycle;Signal;HPM_P1;HPM_P2
2022/03/09 00:00:04;;;;;;;3.67;3.10;;;8.30;99.90;;;;;;5036156;28;20562;-82
2022/03/09 00:02:30;;;;;;;4.88;3.47;;;8.30;99.90;;;;;;5057138;28;20057;-82
2022/03/09 00:04:56;;;;;;;4.85;2.90;;;8.40;99.90;;;;;;5057896;28;20051;-82
2022/03/09 00:07:22;;;;;;;4.78;3.58;;;8.20;99.90;;;;;;5045766;28;20024;-82
2022/03/09 00:09:47;;;;;;;4.10;3.33;;;8.20;99.90;;;;;;5054217;28;20422;-81
2022/03/09 00:12:13;;;;;;;3.78;3.03;;;8.20;99.90;;;;;;5048895;28;20017;-81
2022/03/09 00:14:39;;;;;;;4.70;3.38;;;8.30;99.90;;;;;;5051513;28;20057;-81
2022/03/09 00:17:04;;;;;;;4.32;3.55;;;8.20;99.90;;;;;;5049108;28;20494;-81
2022/03/09 00:19:30;;;;;;;3.72;2.90;;;8.30;99.90;;;;;;5053790;28;20020;-80
2022/03/09 00:21:56;;;;;;;3.58;3.00;;;8.30;99.90;;;;;;5049237;28;20454;-80
2022/03/09 00:24:22;;;;;;;6.88;2.83;;;8.40;99.90;;;;;;5056261;28;20570;-81
2022/03/09 00:26:48;;;;;;;4.22;3.22;;;8.20;99.90;;;;;;5053729;28;20033;-81
2022/03/09 00:29:14;;;;;;;5.38;2.72;;;8.20;99.90;;;;;;5062919;28;20029;-81
2022/03/09 00:31:40;;;;;;;5.30;3.17;;;8.20;99.90;;;;;;5054936;28;20028;-81
2022/03/09 00:34:06;;;;;;;3.13;2.40;;;8.30;99.90;;;;;;5059824;28;20031;-80
2022/03/09 00:36:31;;;;;;;3.25;2.42;;;8.20;99.90;;;;;;5051827;28;20032;-81
2022/03/09 00:38:57;;;;;;;3.28;2.65;;;8.20;99.90;;;;;;5056128;28;20025;-81
2022/03/09 00:41:23;;;;;;;5.07;2.97;;;8.10;99.90;;;;;;5053085;28;20509;-81
2022/03/09 00:43:48;;;;;;;3.03;2.30;;;8.30;99.90;;;;;;5059891;28;20024;-81
2022/03/09 00:46:14;;;;;;;3.22;2.83;;;8.10;99.90;;;;;;5053230;28;20028;-81
2022/03/09 00:48:40;;;;;;;3.50;2.60;;;8.20;99.90;;;;;;5058779;28;20025;-81
2022/03/09 00:51:07;;;;;;;2.92;2.28;;;8.20;99.90;;;;;;5051623;28;20048;-80
2022/03/09 00:53:33;;;;;;;3.60;2.70;;;8.20;99.90;;;;;;5036750;28;20029;-81
2022/03/09 00:55:58;;;;;;;2.90;2.53;;;8.20;99.90;;;;;;5051142;28;20561;-80
2022/03/09 00:58:24;;;;;;;2.78;2.47;;;8.10;99.90;;;;;;5056047;28;20048;-80
2022/03/09 01:00:50;;;;;;;3.25;2.28;;;8.00;99.90;;;;;;5063804;28;20051;-81
2022/03/09 01:03:16;;;;;;;3.67;2.40;;;8.10;99.90;;;;;;5058928;28;20521;-82
2022/03/09 01:05:42;;;;;;;2.78;2.03;;;8.00;99.90;;;;;;5062770;28;20103;-82
2022/03/09 01:08:08;;;;;;;2.60;2.20;;;8.00;99.90;;;;;;5052025;28;20117;-81
2022/03/09 01:10:34;;;;;;;3.85;2.45;;;8.00;99.90;;;;;;5056336;28;20036;-81
2022/03/09 01:13:00;;;;;;;3.17;2.35;;;8.00;99.90;;;;;;5059770;28;20029;-81
2022/03/09 01:15:26;;;;;;;2.67;2.30;;;8.10;99.90;;;;;;5051958;28;20077;-81
2022/03/09 01:17:52;;;;;;;3.45;2.45;;;8.00;99.90;;;;;;5057378;28;20025;-81
2022/03/09 01:20:18;;;;;;;2.97;2.00;;;8.00;99.90;;;;;;5052028;28;20025;-81
2022/03/09 01:22:43;;;;;;;3.03;2.38;;;8.00;99.90;;;;;;5051303;28;20074;-80
2022/03/09 01:25:10;;;;;;;3.92;2.05;;;7.90;99.90;;;;;;5050801;28;20457;-81
2022/03/09 01:27:36;;;;;;;1.90;1.70;;;7.80;99.90;;;;;;5051272;28;20542;-81
2022/03/09 01:30:02;;;;;;;2.10;1.88;;;7.80;99.90;;;;;;5051514;28;20029;-80
2022/03/09 01:32:28;;;;;;;3.42;2.28;;;7.90;99.90;;;;;;5052464;28;20115;-81
2022/03/09 01:34:54;;;;;;;2.90;2.30;;;8.00;99.90;;;;;;5050676;28;20023;-80
2022/03/09 01:37:20;;;;;;;2.88;2.00;;;7.90;99.90;;;;;;5051226;28;20027;-80
2022/03/09 01:39:46;;;;;;;2.67;2.20;;;7.80;99.90;;;;;;5050509;28;20025;-80
2022/03/09 01:42:12;;;;;;;4.03;2.90;;;7.70;99.90;;;;;;5050569;28;20102;-81
2022/03/09 01:44:38;;;;;;;3.30;2.30;;;7.90;99.90;;;;;;5052722;28;20510;-79
2022/03/09 01:47:04;;;;;;;3.45;2.75;;;7.70;99.90;;;;;;5051141;28;20066;-79
2022/03/09 01:49:30;;;;;;;3.20;2.38;;;7.70;99.90;;;;;;5050285;28;20072;-80
2022/03/09 01:52:00;;;;;;;2.15;1.92;;;7.80;99.90;;;;;;5050982;28;20498;-80
2022/03/09 01:54:27;;;;;;;2.95;2.17;;;7.70;99.90;;;;;;5050828;28;20114;-79
2022/03/09 01:56:54;;;;;;;3.05;1.92;;;7.60;99.90;;;;;;5050913;28;20036;-79
2022/03/09 01:59:20;;;;;;;3.65;2.13;;;7.60;99.90;;;;;;5052004;28;20032;-79
2022/03/09 02:01:46;;;;;;;2.65;2.10;;;7.60;99.90;;;;;;5050865;28;20625;-79
2022/03/09 02:04:12;;;;;;;2.55;2.20;;;7.50;99.90;;;;;;5050711;28;20043;-79
2022/03/09 02:06:39;;;;;;;3.28;2.60;;;7.40;99.90;;;;;;5050678;28;20013;-79
2022/03/09 02:11:52;;;;;;;3.47;2.63;;;7.40;99.90;;;;;;5052289;28;20036;-79
2022/03/09 02:14:39;;;;;;;3.75;2.33;;;7.40;99.90;;;;;;5051278;28;20025;-79
2022/03/09 02:17:29;;;;;;;3.83;2.45;;;7.20;99.90;;;;;;5050013;28;20550;-79
2022/03/09 02:19:56;;;;;;;3.65;2.60;;;7.20;99.90;;;;;;5044970;28;20036;-79
2022/03/09 02:22:32;;;;;;;3.80;2.60;;;7.30;99.90;;;;;;5049933;28;20163;-78
2022/03/09 02:24:58;;;;;;;2.28;1.85;;;7.10;99.90;;;;;;5048882;28;20047;-78
2022/03/09 02:27:24;;;;;;;2.38;2.17;;;7.00;99.90;;;;;;5050715;28;20025;-78
2022/03/09 02:29:51;;;;;;;2.70;2.45;;;6.90;99.90;;;;;;5051725;28;20047;-79
2022/03/09 02:32:17;;;;;;;3.40;1.98;;;6.80;99.90;;;;;;5050699;28;20029;-79
2022/03/09 02:34:43;;;;;;;3.05;2.22;;;7.00;99.90;;;;;;5054474;28;20081;-78
2022/03/09 02:37:09;;;;;;;2.55;2.03;;;6.80;99.90;;;;;;5049674;28;20096;-79
2022/03/09 02:39:36;;;;;;;3.03;2.20;;;6.70;99.90;;;;;;5049740;28;20175;-79
2022/03/09 02:42:02;;;;;;;2.30;2.10;;;6.60;99.90;;;;;;5049566;28;20029;-79
2022/03/09 02:44:27;;;;;;;2.50;2.30;;;6.60;99.90;;;;;;5051168;28;20029;-79
2022/03/09 02:46:53;;;;;;;2.22;1.73;;;6.70;99.90;;;;;;5057485;28;20112;-79
2022/03/09 02:49:19;;;;;;;2.63;1.70;;;6.60;99.90;;;;;;5053719;28;20530;-78
2022/03/09 02:51:45;;;;;;;2.85;2.17;;;6.50;99.90;;;;;;5046745;28;20025;-78
2022/03/09 02:54:10;;;;;;;3.25;2.17;;;6.50;99.90;;;;;;5051676;28;20037;-79
2022/03/09 02:56:36;;;;;;;2.08;1.88;;;6.40;99.90;;;;;;5056488;28;20475;-78
2022/03/09 02:59:02;;;;;;;2.05;1.85;;;6.40;99.90;;;;;;5056287;28;20075;-78
2022/03/09 03:01:28;;;;;;;2.15;1.95;;;6.30;99.90;;;;;;5049585;28;20132;-78
2022/03/09 03:03:54;;;;;;;2.30;1.90;;;6.20;99.90;;;;;;5049909;28;20538;-79
2022/03/09 03:06:20;;;;;;;2.10;1.67;;;6.40;99.90;;;;;;5060770;28;20092;-78
2022/03/09 03:08:45;;;;;;;1.73;1.63;;;6.30;99.90;;;;;;5064310;28;20494;-78
2022/03/09 03:11:12;;;;;;;2.25;1.70;;;6.30;99.90;;;;;;5049109;28;20029;-78
2022/03/09 03:13:39;;;;;;;2.30;1.88;;;6.30;99.90;;;;;;5053995;28;20091;-78
2022/03/09 03:16:06;;;;;;;1.70;1.35;;;6.30;99.90;;;;;;5050989;28;20018;-79
2022/03/09 03:18:32;;;;;;;1.58;1.48;;;6.30;99.90;;;;;;5054446;28;20053;-79
2022/03/09 03:20:58;;;;;;;1.70;1.50;;;6.10;99.90;;;;;;5058706;28;20048;-79
2022/03/09 03:23:25;;;;;;;1.38;1.27;;;6.00;99.90;;;;;;5061822;28;20063;-79
2022/03/09 03:25:52;;;;;;;1.55;1.45;;;6.00;99.90;;;;;;5048660;28;20021;-79
2022/03/09 03:28:19;;;;;;;1.48;1.35;;;6.10;99.90;;;;;;5052900;28;20025;-79
2022/03/09 03:30:45;;;;;;;1.42;1.20;;;6.10;99.90;;;;;;5060943;28;20021;-79
2022/03/09 03:33:12;;;;;;;1.40;1.30;;;6.10;99.90;;;;;;5049177;28;20048;-78
2022/03/09 03:35:37;;;;;;;1.58;1.40;;;6.10;99.90;;;;;;5056540;28;20025;-79
2022/03/09 03:38:04;;;;;;;1.60;1.35;;;6.20;99.90;;;;;;5056912;28;20081;-78
2022/03/09 03:40:29;;;;;;;1.50;1.40;;;6.00;99.90;;;;;;5048008;28;20047;-78
2022/03/09 03:42:55;;;;;;;2.20;1.55;;;5.90;99.90;;;;;;5048736;28;20479;-79
2022/03/09 03:45:21;;;;;;;2.08;1.67;;;5.90;99.90;;;;;;5049030;28;20086;-78
2022/03/09 03:47:47;;;;;;;1.58;1.27;;;5.90;99.90;;;;;;5051449;28;20521;-78
2022/03/09 03:50:13;;;;;;;2.58;1.88;;;6.10;99.90;;;;;;5048507;28;20037;-79
2022/03/09 03:52:39;;;;;;;2.47;1.63;;;5.90;99.90;;;;;;5045039;28;20032;-79
2022/03/09 03:55:05;;;;;;;1.90;1.80;;;5.80;99.90;;;;;;5046440;28;20449;-78
2022/03/09 03:57:31;;;;;;;2.65;1.77;;;5.80;99.90;;;;;;5049115;28;20051;-78
2022/03/09 03:59:57;;;;;;;2.20;1.63;;;5.70;99.90;;;;;;5060203;28;20478;-79
2022/03/09 04:02:23;;;;;;;1.58;1.48;;;5.90;99.90;;;;;;5036635;28;20047;-78
2022/03/09 04:04:50;;;;;;;2.20;1.98;;;5.70;99.90;;;;;;5053020;28;20108;-79
2022/03/09 04:07:16;;;;;;;1.75;1.65;;;5.80;99.90;;;;;;5052988;28;20513;-79
2022/03/09 04:09:42;;;;;;;2.13;1.38;;;5.90;99.90;;;;;;5052774;28;20130;-78
2022/03/09 04:12:09;;;;;;;1.63;1.52;;;6.00;99.90;;;;;;5055473;28;20025;-78
2022/03/09 04:14:35;;;;;;;1.50;1.40;;;5.70;99.90;;;;;;5059724;28;20025;-78
2022/03/09 04:17:01;;;;;;;1.30;1.20;;;5.70;99.90;;;;;;5052095;28;20017;-78
2022/03/09 04:19:27;;;;;;;1.90;1.60;;;5.60;99.90;;;;;;5052712;28;20027;-78
2022/03/09 04:21:52;;;;;;;1.48;1.35;;;5.40;99.90;;;;;;5052907;28;20035;-78
2022/03/09 04:24:18;;;;;;;1.85;1.65;;;5.40;99.90;;;;;;5063670;28;20391;-78
2022/03/09 04:26:44;;;;;;;1.88;1.60;;;5.30;99.90;;;;;;5053835;28;20095;-78
2022/03/09 04:29:10;;;;;;;1.58;1.35;;;5.30;99.90;;;;;;5052232;28;20021;-79
2022/03/09 04:31:37;;;;;;;1.40;1.30;;;5.40;99.90;;;;;;5058690;28;20024;-78
2022/03/09 04:34:02;;;;;;;1.55;1.40;;;5.40;99.90;;;;;;5062695;28;20017;-79
2022/03/09 04:36:28;;;;;;;1.90;1.67;;;5.60;99.90;;;;;;5052106;28;20078;-78
2022/03/09 04:38:54;;;;;;;1.77;1.67;;;5.50;99.90;;;;;;5062065;28;20017;-78
2022/03/09 04:41:20;;;;;;;2.67;1.60;;;5.40;99.90;;;;;;5052653;28;20418;-78
2022/03/09 04:43:46;;;;;;;3.08;1.50;;;5.40;99.90;;;;;;5055316;28;20035;-79
2022/03/09 04:46:12;;;;;;;3.17;1.58;;;5.40;99.90;;;;;;5059771;28;20029;-79
2022/03/09 04:48:37;;;;;;;2.47;1.73;;;5.50;99.90;;;;;;5051643;28;20021;-79
2022/03/09 04:51:04;;;;;;;2.17;1.80;;;5.20;99.90;;;;;;5052741;28;20033;-78
2022/03/09 04:53:30;;;;;;;2.50;2.05;;;5.30;99.90;;;;;;5051630;28;20024;-78
2022/03/09 04:55:56;;;;;;;2.38;2.10;;;5.20;99.90;;;;;;5051058;28;20052;-78
2022/03/09 04:58:25;;;;;;;2.50;2.00;;;5.20;99.90;;;;;;5056429;28;20724;-78
2022/03/09 05:00:51;;;;;;;3.05;2.13;;;5.20;99.90;;;;;;5057247;28;20021;-78
2022/03/09 05:03:17;;;;;;;2.33;2.10;;;5.10;99.90;;;;;;5064084;28;20060;-78
2022/03/09 05:05:43;;;;;;;2.47;2.05;;;5.30;99.90;;;;;;5049689;28;20780;-78
2022/03/09 05:08:11;;;;;;;2.88;2.20;;;5.20;99.90;;;;;;5054533;28;20565;-78
2022/03/09 05:10:37;;;;;;;2.60;2.03;;;5.30;99.90;;;;;;5050750;28;20029;-78
2022/03/09 05:13:04;;;;;;;3.08;2.25;;;5.20;99.90;;;;;;5053003;28;20025;-78
2022/03/09 05:15:30;;;;;;;2.22;2.03;;;5.10;99.90;;;;;;5056921;28;20071;-78
2022/03/09 05:17:57;;;;;;;3.20;2.42;;;5.20;99.90;;;;;;5061712;28;20031;-78
2022/03/09 05:20:23;;;;;;;3.70;2.35;;;5.10;99.90;;;;;;5064394;28;20020;-78
2022/03/09 05:22:50;;;;;;;2.33;1.83;;;5.00;99.90;;;;;;5059421;28;20078;-77
2022/03/09 05:25:16;;;;;;;4.18;2.10;;;5.00;99.90;;;;;;5056265;28;20028;-77
2022/03/09 05:27:42;;;;;;;3.40;2.38;;;5.10;99.90;;;;;;5051060;28;20415;-78
2022/03/09 05:30:09;;;;;;;2.95;2.13;;;5.20;99.90;;;;;;5055356;28;20462;-79
2022/03/09 05:32:36;;;;;;;2.50;2.20;;;5.00;99.90;;;;;;5059263;28;20029;-78
2022/03/09 05:35:02;;;;;;;2.67;1.80;;;4.90;99.90;;;;;;5059051;28;20127;-78
2022/03/09 05:37:29;;;;;;;3.92;2.00;;;4.90;99.90;;;;;;5051388;28;20525;-78
2022/03/09 05:39:55;;;;;;;2.58;1.95;;;4.90;99.90;;;;;;5050602;28;20078;-78
2022/03/09 05:42:20;;;;;;;1.48;1.38;;;5.00;99.90;;;;;;5050976;28;20037;-77
2022/03/09 05:44:46;;;;;;;3.13;1.83;;;4.80;99.90;;;;;;5049177;28;20021;-78
2022/03/09 05:47:12;;;;;;;2.33;2.13;;;5.10;99.90;;;;;;5053605;28;20510;-77
2022/03/09 05:49:38;;;;;;;1.80;1.67;;;4.70;99.90;;;;;;5051173;28;20071;-77
2022/03/09 05:52:04;;;;;;;2.20;1.60;;;4.50;99.90;;;;;;5052460;28;20437;-79
2022/03/09 05:54:30;;;;;;;2.17;1.95;;;4.70;99.90;;;;;;5055440;28;20033;-78
2022/03/09 05:56:56;;;;;;;2.35;1.80;;;4.60;99.90;;;;;;5050846;28;20112;-78
2022/03/09 05:59:21;;;;;;;3.38;1.40;;;4.90;99.90;;;;;;5051988;28;20100;-78
2022/03/09 06:01:47;;;;;;;1.52;1.35;;;4.70;99.90;;;;;;5050602;28;20331;-78
2022/03/09 06:04:13;;;;;;;1.92;1.63;;;4.70;99.90;;;;;;5050477;28;20141;-77
2022/03/09 06:06:39;;;;;;;1.70;1.55;;;4.70;99.90;;;;;;5050747;28;20024;-77
2022/03/09 06:09:04;;;;;;;1.92;1.45;;;4.60;99.90;;;;;;5054381;28;20548;-78
2022/03/09 06:11:30;;;;;;;1.48;1.38;;;4.90;99.90;;;;;;5051454;28;20029;-78
2022/03/09 06:13:56;;;;;;;2.05;1.50;;;4.80;99.90;;;;;;5058129;28;20086;-77
2022/03/09 06:16:21;;;;;;;2.60;1.98;;;4.90;99.90;;;;;;5050258;28;20068;-77
2022/03/09 06:18:48;;;;;;;2.38;1.80;;;4.90;99.90;;;;;;5050420;28;20025;-77
2022/03/09 06:21:14;;;;;;;2.03;1.63;;;4.90;99.90;;;;;;5061167;28;20021;-78
2022/03/09 06:23:40;;;;;;;2.63;1.75;;;5.00;99.90;;;;;;5051756;28;20021;-77
2022/03/09 06:26:06;;;;;;;1.98;1.60;;;5.00;99.90;;;;;;5044825;28;20524;-77
2022/03/09 06:28:32;;;;;;;1.95;1.70;;;5.20;99.90;;;;;;5050236;28;20028;-77
2022/03/09 06:30:58;;;;;;;2.50;1.42;;;5.30;99.90;;;;;;5050337;28;20032;-77
2022/03/09 06:33:24;;;;;;;2.22;1.60;;;5.20;99.90;;;;;;5050494;28;20021;-78
2022/03/09 06:35:50;;;;;;;2.72;1.70;;;5.30;99.90;;;;;;5052010;28;20517;-78
2022/03/09 06:38:16;;;;;;;1.77;1.65;;;5.10;99.90;;;;;;5050261;28;20128;-78
2022/03/09 06:40:43;;;;;;;2.95;1.83;;;5.10;99.90;;;;;;5049290;28;20487;-77
2022/03/09 06:43:08;;;;;;;2.20;1.80;;;5.10;99.90;;;;;;5031903;28;20537;-77
2022/03/09 06:45:34;;;;;;;2.60;1.73;;;4.90;99.90;;;;;;5049586;28;20033;-78
2022/03/09 06:48:01;;;;;;;2.22;1.52;;;5.20;99.90;;;;;;5050368;28;20060;-78
2022/03/09 06:50:27;;;;;;;1.88;1.73;;;5.10;99.90;;;;;;5048659;28;20037;-77
2022/03/09 06:52:53;;;;;;;2.83;2.08;;;5.20;99.90;;;;;;5049853;28;20021;-78
2022/03/09 06:55:19;;;;;;;1.75;1.65;;;5.40;99.90;;;;;;5048952;28;20025;-77
2022/03/09 06:57:44;;;;;;;1.90;1.80;;;5.60;99.90;;;;;;5049924;28;20111;-78
2022/03/09 07:00:12;;;;;;;1.92;1.73;;;5.70;99.90;;;;;;5049345;28;20037;-78
2022/03/09 07:02:38;;;;;;;2.80;1.90;;;5.60;99.90;;;;;;5051181;28;20017;-79
2022/03/09 07:05:05;;;;;;;3.53;1.73;;;5.80;99.90;;;;;;5049409;28;20043;-80
2022/03/09 07:07:32;;;;;;;3.40;2.17;;;6.90;99.90;;;;;;5049316;28;20025;-78
2022/03/09 07:09:58;;;;;;;3.15;2.25;;;7.40;99.90;;;;;;5044828;28;20112;-78
2022/03/09 07:12:24;;;;;;;2.92;2.15;;;8.60;99.90;;;;;;5049205;28;20032;-78
2022/03/09 07:14:50;;;;;;;2.40;1.88;;;10.40;99.90;;;;;;5051088;28;20023;-78
2022/03/09 07:17:17;;;;;;;2.08;1.45;;;10.90;99.90;;;;;;5049639;28;20025;-78
2022/03/09 07:19:42;;;;;;;2.13;1.83;;;12.90;99.90;;;;;;5049120;28;20029;-76
2022/03/09 07:22:08;;;;;;;2.20;1.70;;;13.20;99.90;;;;;;5049202;28;20109;-75
2022/03/09 07:24:34;;;;;;;1.80;1.70;;;14.60;98.70;;;;;;5048980;28;20029;-76
2022/03/09 07:27:00;;;;;;;2.28;1.83;;;16.30;96.60;;;;;;5049046;28;20025;-75
2022/03/09 07:29:26;;;;;;;2.33;1.75;;;14.20;96.70;;;;;;5050545;28;20040;-76
2022/03/09 07:31:53;;;;;;;2.70;1.63;;;11.20;99.90;;;;;;5049500;28;20071;-76
2022/03/09 07:34:22;;;;;;;1.80;1.60;;;9.70;99.90;;;;;;5052801;28;20025;-76
2022/03/09 07:36:49;;;;;;;2.30;1.73;;;8.90;99.90;;;;;;5054076;28;20021;-76
2022/03/09 07:39:14;;;;;;;2.13;1.80;;;8.30;99.90;;;;;;5044095;28;20029;-76
2022/03/09 07:41:41;;;;;;;3.05;2.35;;;8.10;99.90;;;;;;5050157;28;20032;-76
2022/03/09 07:44:07;;;;;;;2.72;1.77;;;7.90;99.90;;;;;;5049185;28;20031;-76
2022/03/09 07:46:33;;;;;;;1.70;1.60;;;7.90;99.90;;;;;;5048097;28;20163;-76
2022/03/09 07:48:59;;;;;;;2.72;1.80;;;7.60;99.90;;;;;;5049200;28;20524;-75
2022/03/09 07:51:24;;;;;;;2.17;1.80;;;7.70;99.90;;;;;;5048583;28;20569;-76
2022/03/09 07:53:50;;;;;;;2.03;1.73;;;7.90;99.90;;;;;;5050515;28;20025;-76
2022/03/09 07:56:16;;;;;;;3.95;2.20;;;7.90;99.90;;;;;;5048730;28;20029;-76
2022/03/09 07:58:42;;;;;;;2.03;1.70;;;8.00;99.90;;;;;;5049577;28;20028;-76
2022/03/09 08:01:08;;;;;;;2.35;1.83;;;8.00;99.90;;;;;;5048808;28;20036;-76
2022/03/09 08:03:33;;;;;;;2.40;1.90;;;8.10;99.90;;;;;;5048934;28;20025;-76
2022/03/09 08:05:59;;;;;;;2.42;2.00;;;8.10;99.90;;;;;;5052489;28;20498;-76
2022/03/09 08:08:25;;;;;;;2.75;2.13;;;8.00;99.90;;;;;;5037873;28;20043;-77
2022/03/09 08:10:51;;;;;;;3.28;2.60;;;8.00;99.90;;;;;;5049089;28;20486;-77
2022/03/09 08:13:17;;;;;;;2.45;2.10;;;8.10;99.90;;;;;;5048053;28;20533;-77
2022/03/09 08:15:43;;;;;;;2.63;2.30;;;8.30;99.90;;;;;;5048573;28;20021;-78
2022/03/09 08:18:09;;;;;;;3.88;2.75;;;8.60;99.90;;;;;;5059854;28;21041;-79
2022/03/09 08:20:35;;;;;;;4.55;3.03;;;8.50;99.90;;;;;;5058722;28;20514;-79
2022/03/09 08:23:01;;;;;;;4.45;3.30;;;8.40;99.90;;;;;;5050178;28;20040;-79
2022/03/09 08:25:27;;;;;;;5.35;3.38;;;8.60;99.90;;;;;;5047935;28;20021;-79
2022/03/09 08:27:54;;;;;;;5.35;3.67;;;8.90;99.90;;;;;;5048604;28;20561;-79
2022/03/09 08:30:19;;;;;;;4.78;3.47;;;8.90;99.90;;;;;;5032692;28;20045;-79
2022/03/09 08:32:45;;;;;;;5.53;4.13;;;9.20;99.90;;;;;;5059292;28;20053;-79
2022/03/09 08:35:11;;;;;;;6.53;4.28;;;9.00;99.90;;;;;;5059166;28;20043;-80
2022/03/09 08:37:36;;;;;;;5.80;4.20;;;8.90;99.90;;;;;;5054017;28;20447;-80
2022/03/09 08:40:03;;;;;;;7.82;5.10;;;8.70;99.90;;;;;;5051012;28;20491;-79
2022/03/09 08:42:29;;;;;;;7.38;5.10;;;8.90;99.90;;;;;;5036673;28;20104;-80
2022/03/09 08:44:55;;;;;;;6.97;4.75;;;9.00;99.90;;;;;;5039665;28;20574;-80
2022/03/09 08:47:21;;;;;;;7.70;5.18;;;8.80;99.90;;;;;;5046531;28;20498;-79
2022/03/09 08:49:46;;;;;;;6.63;4.82;;;8.80;99.90;;;;;;5051594;28;20129;-81
2022/03/09 08:52:13;;;;;;;5.72;4.35;;;9.00;99.90;;;;;;5053704;28;20566;-81
2022/03/09 08:54:40;;;;;;;9.10;5.93;;;9.00;99.90;;;;;;5051925;28;20020;-81
2022/03/09 08:57:06;;;;;;;6.90;4.88;;;9.00;99.90;;;;;;5048683;28;20087;-82
2022/03/09 08:59:32;;;;;;;10.10;5.57;;;8.90;99.90;;;;;;5051407;28;20463;-80
2022/03/09 09:01:58;;;;;;;8.52;5.60;;;8.80;99.90;;;;;;5052182;28;20681;-81
2022/03/09 09:04:25;;;;;;;8.93;5.78;;;8.80;99.90;;;;;;5054350;28;20020;-81
2022/03/09 09:06:50;;;;;;;8.45;5.25;;;8.80;99.90;;;;;;5051404;28;20111;-80
2022/03/09 09:09:17;;;;;;;8.68;5.43;;;8.80;99.90;;;;;;5055567;28;20103;-80
2022/03/09 09:11:44;;;;;;;8.25;5.72;;;8.90;99.90;;;;;;5052350;28;20025;-80
2022/03/09 09:14:10;;;;;;;9.07;5.53;;;9.00;99.90;;;;;;5051729;28;20021;-80
2022/03/09 09:16:36;;;;;;;7.78;4.88;;;9.10;99.90;;;;;;5050921;28;20033;-80
2022/03/09 09:19:02;;;;;;;9.98;5.38;;;9.40;99.90;;;;;;5051123;28;20040;-80
2022/03/09 09:21:28;;;;;;;10.52;6.22;;;9.50;99.90;;;;;;5041111;28;20474;-81
2022/03/09 09:23:54;;;;;;;10.88;6.10;;;9.30;99.90;;;;;;5045011;28;20026;-81
2022/03/09 09:26:20;;;;;;;8.40;4.85;;;9.30;99.90;;;;;;5050812;28;20090;-81
2022/03/09 09:28:45;;;;;;;9.30;5.53;;;9.50;99.90;;;;;;5031289;28;20494;-80
2022/03/09 09:31:11;;;;;;;9.13;6.15;;;9.30;99.90;;;;;;5051055;28;20033;-82
2022/03/09 09:33:37;;;;;;;9.70;6.10;;;9.30;99.90;;;;;;5048948;28;20120;-80
2022/03/09 09:36:03;;;;;;;10.23;6.60;;;9.20;99.90;;;;;;5051061;28;20086;-80
2022/03/09 09:38:29;;;;;;;9.63;6.25;;;9.20;99.90;;;;;;5065262;28;20020;-80
2022/03/09 09:40:55;;;;;;;10.52;7.25;;;9.30;99.90;;;;;;5053095;28;20464;-80
2022/03/09 09:43:24;;;;;;;12.93;6.85;;;9.40;99.90;;;;;;5051217;28;20132;-80
2022/03/09 09:45:50;;;;;;;11.07;6.20;;;9.40;99.90;;;;;;5050730;28;20029;-80
2022/03/09 09:48:19;;;;;;;12.30;6.60;;;9.40;99.90;;;;;;5050785;28;20141;-80
2022/03/09 09:50:45;;;;;;;14.32;6.68;;;9.50;99.90;;;;;;5052117;28;20045;-80
2022/03/09 09:53:13;;;;;;;11.18;6.68;;;9.50;99.90;;;;;;5050814;28;20036;-80
2022/03/09 09:55:40;;;;;;;10.68;7.10;;;9.60;99.90;;;;;;5049240;28;20025;-80
2022/03/09 09:58:06;;;;;;;12.43;7.30;;;9.50;99.90;;;;;;5049453;28;20020;-80
2022/03/09 10:00:33;;;;;;;10.43;7.25;;;9.50;99.90;;;;;;5050724;28;20024;-80
2022/03/09 10:02:59;;;;;;;13.55;8.13;;;9.60;99.90;;;;;;5050539;28;20051;-80
2022/03/09 10:05:25;;;;;;;11.38;7.40;;;9.50;99.90;;;;;;5051766;28;20482;-80
2022/03/09 10:08:03;;;;;;;12.00;7.55;;;9.60;99.90;;;;;;5058132;28;20502;-80
2022/03/09 10:10:30;;;;;;;14.77;8.50;;;9.50;99.90;;;;;;5042658;28;20719;-80
2022/03/09 10:13:12;;;;;;;13.55;8.93;;;9.40;99.90;;;;;;5048948;28;20036;-80
2022/03/09 10:15:39;;;;;;;14.50;9.00;;;9.40;99.90;;;;;;5050293;28;20108;-80
2022/03/09 10:18:19;;;;;;;19.45;10.80;;;9.40;99.90;;;;;;5050207;28;20095;-80
2022/03/09 10:20:47;;;;;;;15.65;10.10;;;9.30;99.90;;;;;;5051536;28;20029;-80
2022/03/09 10:23:13;;;;;;;16.02;10.00;;;9.50;99.90;;;;;;5049944;28;20029;-80
2022/03/09 10:25:40;;;;;;;16.05;9.45;;;9.50;99.90;;;;;;5048841;28;20622;-80
2022/03/09 10:28:08;;;;;;;17.67;9.93;;;9.70;99.90;;;;;;5049839;28;20036;-80
2022/03/09 10:30:35;;;;;;;15.77;9.82;;;10.10;99.90;;;;;;5050391;28;20036;-80
2022/03/09 10:33:03;;;;;;;18.80;10.68;;;10.00;99.90;;;;;;5038868;28;20048;-80
2022/03/09 10:35:29;;;;;;;17.33;10.27;;;10.20;99.90;;;;;;5049768;28;20048;-80
2022/03/09 10:37:56;;;;;;;15.85;9.95;;;10.30;99.90;;;;;;5058034;28;20123;-83
2022/03/09 10:40:22;;;;;;;14.32;9.05;;;10.40;99.90;;;;;;5052671;28;20025;-80
2022/03/09 10:42:49;;;;;;;17.35;11.18;;;10.40;99.90;;;;;;5049489;28;20028;-80
2022/03/09 10:45:17;;;;;;;16.67;9.70;;;10.30;99.90;;;;;;5056726;28;20033;-80
2022/03/09 10:47:44;;;;;;;15.10;10.00;;;10.40;99.90;;;;;;5050733;28;20116;-80
2022/03/09 10:50:21;;;;;;;16.23;10.13;;;10.70;99.90;;;;;;5041628;28;20132;-80
2022/03/09 10:52:51;;;;;;;17.38;10.77;;;10.80;99.90;;;;;;5050440;28;20040;-80
2022/03/09 10:55:32;;;;;;;15.63;9.48;;;10.70;99.90;;;;;;5052291;28;20043;-80
2022/03/09 10:58:18;;;;;;;13.10;9.07;;;10.70;99.90;;;;;;5048646;28;20029;-82
2022/03/09 11:00:48;;;;;;;15.55;9.80;;;10.80;99.90;;;;;;5050238;28;20056;-81
2022/03/09 11:03:18;;;;;;;16.48;9.68;;;10.80;99.90;;;;;;5058092;28;20037;-81
2022/03/09 11:05:57;;;;;;;15.50;9.85;;;11.20;99.90;;;;;;5051066;28;20029;-81
2022/03/09 11:08:28;;;;;;;15.77;10.18;;;11.50;99.90;;;;;;5058523;28;20106;-80
2022/03/09 11:10:55;;;;;;;13.90;9.82;;;11.50;99.90;;;;;;5042258;28;20060;-80
2022/03/09 11:13:22;;;;;;;17.77;10.38;;;11.50;99.90;;;;;;5052124;28;20078;-80
2022/03/09 11:15:49;;;;;;;15.13;9.52;;;11.80;99.90;;;;;;5049781;28;20028;-80
2022/03/09 11:18:19;;;;;;;14.18;9.40;;;12.10;99.90;;;;;;5054196;28;20028;-80
2022/03/09 11:20:51;;;;;;;16.00;10.38;;;12.40;99.90;;;;;;5053232;28;20108;-80
2022/03/09 11:23:17;;;;;;;13.80;8.95;;;12.20;99.90;;;;;;5058306;28;20047;-80
2022/03/09 11:25:58;;;;;;;14.10;9.35;;;12.20;99.90;;;;;;5051608;28;20788;-80
2022/03/09 11:28:27;;;;;;;14.00;8.87;;;12.30;99.90;;;;;;5052857;28;20052;-80
2022/03/09 11:30:55;;;;;;;11.90;8.55;;;12.20;99.90;;;;;;5049250;28;20107;-80
2022/03/09 11:33:40;;;;;;;14.85;8.13;;;12.30;99.90;;;;;;5040779;28;20020;-80
2022/03/09 11:36:29;;;;;;;15.80;8.73;;;12.30;99.90;;;;;;5059721;28;20082;-80
2022/03/09 11:38:55;;;;;;;11.40;7.47;;;12.50;99.90;;;;;;5047731;28;20120;-80
2022/03/09 11:41:25;;;;;;;11.85;7.78;;;12.50;99.90;;;;;;5048261;28;20103;-81
2022/03/09 11:43:52;;;;;;;13.13;7.68;;;12.60;99.90;;;;;;5048337;28;20066;-81
2022/03/09 11:46:19;;;;;;;11.20;7.57;;;12.80;99.90;;;;;;5048471;28;20104;-82
2022/03/09 11:48:56;;;;;;;10.18;7.18;;;12.70;99.90;;;;;;5049248;28;20997;-81
2022/03/09 11:51:24;;;;;;;10.52;6.95;;;12.70;99.90;;;;;;5049076;28;20052;-81
2022/03/09 11:53:52;;;;;;;10.93;6.45;;;12.60;99.90;;;;;;5059731;28;20071;-80
2022/03/09 11:56:28;;;;;;;10.25;6.60;;;12.60;99.90;;;;;;5049255;28;20032;-80
2022/03/09 11:59:10;;;;;;;11.23;6.65;;;12.70;99.90;;;;;;5045797;28;20029;-80
2022/03/09 12:01:58;;;;;;;12.35;7.07;;;13.20;99.90;;;;;;5051336;28;20017;-80
2022/03/09 12:04:54;;;;;;;8.55;5.80;;;13.30;99.90;;;;;;5048814;28;20104;-80
2022/03/09 12:07:29;;;;;;;9.38;5.88;;;13.20;99.90;;;;;;5044223;28;20020;-81
2022/03/09 12:10:00;;;;;;;9.50;6.07;;;13.50;99.90;;;;;;5050566;28;20029;-81
2022/03/09 12:12:28;;;;;;;10.70;6.13;;;13.30;99.90;;;;;;5052192;28;20035;-81
2022/03/09 12:15:01;;;;;;;9.77;5.82;;;13.20;99.90;;;;;;5060298;28;20631;-81
2022/03/09 12:17:28;;;;;;;10.80;6.82;;;13.50;99.90;;;;;;5062705;28;20017;-81
2022/03/09 12:20:12;;;;;;;9.88;6.25;;;13.50;99.90;;;;;;5053832;28;20025;-80
2022/03/09 12:22:59;;;;;;;9.75;6.35;;;13.10;99.90;;;;;;5058544;28;20039;-81
2022/03/09 12:25:36;;;;;;;8.55;5.82;;;13.20;99.90;;;;;;5063511;28;20111;-81
2022/03/09 12:28:24;;;;;;;9.10;6.68;;;13.20;99.90;;;;;;5053253;28;20047;-79
2022/03/09 12:31:19;;;;;;;9.00;6.13;;;13.20;99.90;;;;;;5055510;28;20021;-80
2022/03/09 12:33:49;;;;;;;8.57;6.03;;;13.10;99.90;;;;;;5041652;28;20091;-81
2022/03/09 12:36:20;;;;;;;7.07;5.50;;;13.10;99.90;;;;;;5062256;28;20052;-81
2022/03/09 12:38:53;;;;;;;9.30;6.10;;;13.10;99.90;;;;;;5053417;28;20541;-80
2022/03/09 12:41:42;;;;;;;10.00;6.38;;;13.50;99.90;;;;;;5054770;28;20513;-80
2022/03/09 12:44:12;;;;;;;10.15;6.20;;;13.50;99.90;;;;;;5057040;28;20108;-80
2022/03/09 12:46:40;;;;;;;9.13;5.80;;;13.20;99.90;;;;;;5051289;28;20025;-79
2022/03/09 12:49:09;;;;;;;9.05;5.78;;;13.40;99.90;;;;;;5043306;28;20053;-79
2022/03/09 12:51:37;;;;;;;8.60;6.07;;;13.70;99.90;;;;;;5051221;28;20024;-79
2022/03/09 12:54:03;;;;;;;6.63;5.38;;;13.70;99.90;;;;;;5060859;28;20521;-79
2022/03/09 12:56:30;;;;;;;7.05;5.50;;;13.70;99.90;;;;;;5052598;28;20028;-79